Latest Weather Observations for Ngukurr AWS

IDD60801

Issued at 10:31 pm CST Sunday 21 July 2019 (issued every 10 minutes, with the page automatically refreshed every 10 minutes)

About weather observations | Map of weather stations | Latest weather observations for NT | Other Formats
Station Details ID: 014299 Name: NGUKURR AIRPORT Lat: -14.72 Lon: 134.75 Height: 14.46 m
Data from the previous 72 hours. | See also: Recent months at Ngukurr AWS
Date/Time
CST
Temp
°C
App
Temp
°C
Dew
Point
°C
Rel
Hum
%
Delta-T
°C
Wind Press
QNH
hPa
Press
MSL
hPa
Rain since
9am
mm
Dir  Spd
km/h
Gust
km/h
Spd
kts
Gust
kts
21/10:30pm 19.6 19.9 14.4 72 3.0 ENE 6 7 3 4 1014.6 1014.6 0.0
21/10:00pm 20.3 20.3 14.2 68 3.5 ENE 7 9 4 5 1014.3 1014.3 0.0
21/09:30pm 20.6 20.6 13.6 64 4.0 ENE 6 7 3 4 1014.1 1014.1 0.0
21/09:00pm 20.3 21.0 12.3 60 4.5 CALM 0 2 0 1 1013.9 1013.9 0.0
21/08:30pm 21.2 20.8 11.2 53 5.5 E 4 4 2 2 1013.6 1013.6 0.0
21/08:00pm 22.6 21.7 11.4 49 6.3 E 7 11 4 6 1013.3 1013.3 0.0
21/07:30pm 23.3 22.0 10.0 43 7.3 ENE 7 15 4 8 1012.8 1012.8 0.0
21/07:00pm 24.1 22.2 8.9 38 8.2 E 9 13 5 7 1012.4 1012.4 0.0
21/06:30pm 25.2 22.2 7.8 33 9.2 E 13 17 7 9 1012.1 1012.1 0.0
21/06:00pm 27.0 21.7 -0.9 16 12.8 ENE 17 24 9 13 1012.0 1012.0 0.0
21/05:30pm 28.6 22.3 -6.0 10 14.7 ENE 19 26 10 14 1011.7 1011.7 0.0
21/05:00pm 29.9 23.9 -6.4 9 15.5 E 17 22 9 12 1011.4 1011.4 0.0
21/04:30pm 30.9 25.4 -5.6 9 15.9 E 15 24 8 13 1011.4 1011.4 0.0
21/04:00pm 31.1 25.8 -7.0 8 16.3 ESE 13 24 7 13 1011.3 1011.3 0.0
21/03:30pm 31.1 26.4 -1.6 12 15.3 E 13 19 7 10 1011.3 1011.3 0.0
21/03:00pm 31.3 26.0 -3.9 10 15.9 E 15 28 8 15 1011.5 1011.5 0.0
21/02:30pm 31.3 25.8 -5.3 9 16.1 E 15 24 8 13 1011.9 1011.9 0.0
21/02:00pm 30.5 26.2 3.5 18 13.7 E 15 28 8 15 1012.2 1012.2 0.0
21/01:30pm 30.2 25.8 4.8 20 13.2 ESE 17 24 9 13 1013.0 1013.0 0.0
21/01:00pm 30.2 25.9 3.3 18 13.6 E 15 26 8 14 1013.4 1013.4 0.0
21/12:30pm 29.9 25.7 3.8 19 13.3 ESE 15 26 8 14 1014.0 1014.0 0.0
21/12:00pm 29.2 26.8 8.8 28 11.3 ENE 11 20 6 11 1014.4 1014.4 0.0
21/11:30am 27.3 26.2 12.1 39 8.8 ENE 9 17 5 9 1014.9 1014.9 0.0
21/11:00am 25.7 26.4 15.7 54 6.1 ESE 6 7 3 4 1015.5 1015.5 0.0
21/10:30am 23.7 25.4 17.2 67 4.0 S 4 9 2 5 1015.5 1015.5 0.0
21/10:00am 22.1 24.6 18.1 78 2.5 E 2 9 1 5 1015.8 1015.8 0.0
21/09:30am 18.8 21.1 17.8 94 0.6 SE 2 6 1 3 1016.1 1016.1 0.0
21/09:00am 16.4 18.4 16.1 98 0.2 CALM 0 0 0 0 1016.1 1016.1 0.0
21/08:30am 15.3 16.5 15.0 98 0.2 ESE 2 4 1 2 1016.1 1016.1 0.0
21/08:00am 14.4 14.9 14.1 98 0.2 E 4 4 2 2 1015.7 1015.7 0.0
21/07:30am 14.1 14.9 13.8 98 0.2 ENE 2 4 1 2 1015.5 1015.5 0.0
21/07:00am 13.5 14.5 13.2 98 0.2 CALM 0 0 0 0 1015.3 1015.3 0.0
21/06:30am 12.8 12.8 12.5 98 0.2 SSE 4 6 2 3 1015.1 1015.1 0.0
21/06:00am 12.5 13.2 12.2 98 0.2 CALM 0 0 0 0 1015.2 1015.2 0.0
21/05:30am 12.8 13.6 12.5 98 0.2 CALM 0 0 0 0 1015.0 1015.0 0.0
21/05:00am 12.1 12.7 11.8 98 0.2 CALM 0 0 0 0 1014.6 1014.6 0.0
21/04:30am 12.2 12.7 11.7 97 0.3 CALM 0 0 0 0 1014.3 1014.3 0.0
21/04:00am 13.3 14.2 13.0 98 0.2 CALM 0 0 0 0 1014.3 1014.3 0.0
21/03:30am 13.8 14.9 13.5 98 0.2 CALM 0 0 0 0 1014.3 1014.3 0.0
21/03:00am 13.7 14.7 13.2 97 0.3 CALM 0 0 0 0 1014.5 1014.5 0.0
21/02:30am 15.2 16.8 14.9 98 0.2 CALM 0 0 0 0 1014.5 1014.5 0.0
21/02:00am 15.5 16.8 15.2 98 0.2 SE 2 2 1 1 1014.5 1014.5 0.0
21/01:30am 15.9 17.0 15.6 98 0.2 ESE 4 6 2 3 1014.7 1014.7 0.0
21/01:00am 15.3 16.4 14.5 95 0.5 E 2 6 1 3 1015.0 1015.0 0.0
21/12:30am 15.8 17.4 14.8 94 0.6 CALM 0 2 0 1 1015.2 1015.2 0.0
21/12:00am 17.1 17.7 15.4 90 1.0 NE 6 7 3 4 1015.0 1015.0 0.0
 
Date/Time
CST
Temp
°C
App
Temp
°C
Dew
Point
°C
Rel
Hum
%
Delta-T
°C
Wind Press
QNH
hPa
Press
MSL
hPa
Rain since
9am
mm
Dir  Spd
km/h
Gust
km/h
Spd
kts
Gust
kts
20/11:30pm 17.1 18.8 15.3 89 1.0 CALM 0 2 0 1 1015.3 1015.3 0.0
20/11:00pm 17.7 18.2 15.0 84 1.6 NE 6 7 3 4 1015.5 1015.5 0.0
20/10:30pm 17.2 18.2 13.1 77 2.3 CALM 0 2 0 1 1015.7 1015.7 0.0
20/10:00pm 18.8 19.3 13.9 73 2.8 NE 4 6 2 3 1015.7 1015.7 0.0
20/09:30pm 19.3 19.3 13.7 70 3.2 ENE 6 6 3 3 1015.6 1015.6 0.0
20/09:00pm 19.2 18.7 12.2 64 3.9 E 6 6 3 3 1015.5 1015.5 0.0
20/08:30pm 20.3 20.2 12.0 59 4.6 E 4 6 2 3 1015.3 1015.3 0.0
20/08:00pm 21.2 20.9 11.5 54 5.4 E 4 6 2 3 1014.9 1014.9 0.0
20/07:30pm 22.3 21.4 10.5 47 6.5 E 6 9 3 5 1014.4 1014.4 0.0
20/07:00pm 23.3 21.3 8.6 39 7.8 E 9 13 5 7 1014.1 1014.1 0.0
20/06:30pm 24.6 21.8 6.8 32 9.3 E 11 17 6 9 1013.8 1013.8 0.0
20/06:00pm 26.2 21.6 3.5 23 11.2 ENE 17 24 9 13 1013.7 1013.7 0.0
20/05:30pm 27.7 22.7 1.2 18 12.7 E 17 24 9 13 1013.5 1013.5 0.0
20/05:00pm 28.8 24.1 2.9 19 12.9 E 17 24 9 13 1013.3 1013.3 0.0
20/04:30pm 29.6 24.8 2.8 18 13.4 ENE 17 26 9 14 1013.1 1013.1 0.0
20/04:00pm 30.1 24.6 0.6 15 14.2 E 19 26 10 14 1013.0 1013.0 0.0
20/03:30pm 30.5 26.0 1.9 16 14.2 E 15 26 8 14 1013.0 1013.0 0.0
20/03:00pm 30.9 26.3 1.3 15 14.5 E 15 24 8 13 1013.2 1013.2 0.0
20/02:30pm 30.6 26.1 1.9 16 14.2 E 15 26 8 14 1013.7 1013.7 0.0
20/02:00pm 30.9 27.1 3.8 18 13.9 ENE 13 28 7 15 1014.3 1014.3 0.0
20/01:30pm 30.6 27.3 6.5 22 12.9 ESE 13 20 7 11 1014.8 1014.8 0.0
20/01:00pm 29.4 26.3 7.3 25 11.9 ESE 13 24 7 13 1015.3 1015.3 0.0
20/12:30pm 28.8 25.3 7.4 26 11.5 E 15 24 8 13 1016.0 1016.0 0.0
20/12:00pm 28.2 25.9 9.0 30 10.6 ESE 11 20 6 11 1016.5 1016.5 0.0
20/11:30am 27.0 24.3 10.2 35 9.4 ENE 15 22 8 12 1017.0 1017.0 0.0
20/11:00am 26.3 24.6 10.0 36 9.1 ENE 9 20 5 11 1017.4 1017.4 0.0
20/10:30am 23.0 23.1 13.8 56 5.4 NNE 6 9 3 5 1017.8 1017.8 0.0
20/10:00am 21.6 21.6 14.3 63 4.3 NE 7 11 4 6 1018.0 1018.0 0.0
20/09:30am 20.2 20.2 13.6 66 3.8 E 6 7 3 4 1018.0 1018.0 0.0
20/09:00am 18.1 19.7 15.0 82 1.8 CALM 0 4 0 2 1017.9 1017.9 0.2
20/08:30am 15.7 17.5 15.4 98 0.2 CALM 0 0 0 0 1017.7 1017.7 0.2
20/08:00am 14.2 15.4 13.9 98 0.2 CALM 0 0 0 0 1017.3 1017.3 0.2
20/07:30am 13.8 14.9 13.5 98 0.2 CALM 0 0 0 0 1016.9 1016.9 0.2
20/07:00am 13.6 14.6 13.3 98 0.2 CALM 0 0 0 0 1016.5 1016.5 0.2
20/06:30am 13.5 14.5 13.2 98 0.2 CALM 0 0 0 0 1016.1 1016.1 0.2
20/06:00am 12.8 13.6 12.5 98 0.2 CALM 0 0 0 0 1015.9 1015.9 0.2
20/05:30am 12.4 13.0 11.8 96 0.3 CALM 0 0 0 0 1015.7 1015.7 0.2
20/05:00am 10.8 10.7 9.6 92 0.6 CALM 0 0 0 0 1015.4 1015.4 0.2
20/04:30am 10.4 10.2 9.0 91 0.7 CALM 0 0 0 0 1015.3 1015.3 0.2
20/04:00am 10.9 10.9 9.8 93 0.6 CALM 0 0 0 0 1015.2 1015.2 0.2
20/03:30am 10.8 10.5 8.7 87 1.0 CALM 0 0 0 0 1015.3 1015.3 0.2
20/03:00am 11.6 11.3 8.6 82 1.5 CALM 0 0 0 0 1015.3 1015.3 0.2
20/02:30am 12.0 12.0 9.7 86 1.2 CALM 0 0 0 0 1015.4 1015.4 0.2
20/02:00am 12.7 13.0 10.9 89 0.9 CALM 0 0 0 0 1015.7 1015.7 0.2
20/01:30am 13.1 13.3 10.5 84 1.4 CALM 0 0 0 0 1016.1 1016.1 0.2
20/01:00am 13.8 14.5 12.2 90 0.9 CALM 0 0 0 0 1016.2 1016.2 0.2
20/12:30am 14.9 15.7 13.8 93 0.6 SSE 2 4 1 2 1016.3 1016.3 0.2
20/12:00am 14.4 15.1 12.1 86 1.2 CALM 0 0 0 0 1016.3 1016.3 0.2
 
Date/Time
CST
Temp
°C
App
Temp
°C
Dew
Point
°C
Rel
Hum
%
Delta-T
°C
Wind Press
QNH
hPa
Press
MSL
hPa
Rain since
9am
mm
Dir  Spd
km/h
Gust
km/h
Spd
kts
Gust
kts
19/11:30pm 15.4 16.4 13.2 87 1.2 CALM 0 0 0 0 1016.4 1016.4 0.2
19/11:00pm 16.3 17.3 13.2 82 1.7 CALM 0 0 0 0 1016.5 1016.5 0.2
19/10:30pm 17.3 17.8 14.0 81 1.9 ESE 4 4 2 2 1016.4 1016.4 0.2
19/10:00pm 17.4 17.9 11.7 69 3.1 CALM 0 0 0 0 1016.4 1016.4 0.2
19/09:30pm 19.6 19.4 13.1 66 3.7 NE 6 6 3 3 1016.1 1016.1 0.2
19/09:00pm 20.1 19.6 12.1 60 4.5 ENE 6 7 3 4 1016.0 1016.0 0.2
19/08:30pm 20.8 19.9 10.6 52 5.6 ENE 6 9 3 5 1015.6 1015.6 0.2
19/08:00pm 21.4 19.7 8.3 43 6.9 ENE 7 7 4 4 1015.3 1015.3 0.2
19/07:30pm 22.3 20.4 6.5 36 8.0 E 6 9 3 5 1015.0 1015.0 0.2
19/07:00pm 22.7 20.5 5.2 32 8.7 E 6 7 3 4 1014.8 1014.8 0.2
19/06:30pm 24.1 21.4 5.5 30 9.4 E 9 15 5 8 1014.6 1014.6 0.2
19/06:00pm 25.2 20.2 3.8 25 10.6 E 19 26 10 14 1014.4 1014.4 0.2
19/05:30pm 26.6 21.8 4.4 24 11.2 E 19 26 10 14 1014.2 1014.2 0.2
19/05:00pm 27.3 22.4 5.0 24 11.4 E 20 28 11 15 1014.1 1014.1 0.2
19/04:30pm 28.1 23.1 3.7 21 12.3 ENE 19 26 10 14 1013.9 1013.9 0.2
19/04:00pm 29.1 24.8 5.2 22 12.4 E 17 26 9 14 1013.6 1013.6 0.2
19/03:30pm 28.7 24.0 6.1 24 11.9 ENE 20 26 11 14 1013.7 1013.7 0.2
19/03:00pm 29.2 24.5 6.0 23 12.2 ENE 20 32 11 17 1013.7 1013.7 0.2
19/02:30pm 29.2 24.4 4.6 21 12.6 ENE 19 30 10 16 1013.8 1013.8 0.2
19/02:00pm 29.3 24.8 6.0 23 12.3 ENE 19 32 10 17 1014.2 1014.2 0.2
19/01:30pm 29.1 24.4 5.9 23 12.2 E 20 33 11 18 1014.8 1014.8 0.2
19/01:00pm 29.6 24.7 4.3 20 13.0 E 19 30 10 16 1015.3 1015.3 0.2
19/12:30pm 28.4 23.0 4.6 22 12.2 E 22 32 12 17 1015.8 1015.8 0.2
19/12:00pm 28.3 23.7 6.4 25 11.5 E 20 32 11 17 1016.1 1016.1 0.2
19/11:30am 27.3 23.0 7.2 28 10.7 ESE 19 26 10 14 1016.6 1016.6 0.2
19/11:00am 27.0 23.4 9.8 34 9.6 E 19 28 10 15 1017.1 1017.1 0.0
19/10:30am 25.0 21.9 11.6 43 7.6 E 19 28 10 15 1017.4 1017.4 0.0
19/10:00am 23.3 20.9 13.8 55 5.5 ESE 19 28 10 15 1017.6 1017.6 0.0
19/09:30am 21.8 22.1 16.1 70 3.4 ESE 9 13 5 7 1017.5 1017.5 0.0
19/09:00am 20.1 21.6 17.7 86 1.5 E 6 9 3 5 1017.6 1017.6 0.0
19/08:30am 17.5 18.6 17.2 98 0.2 ENE 7 11 4 6 1017.4 1017.4 0.0
19/08:00am 17.0 18.1 16.7 98 0.2 SE 6 9 3 5 1017.2 1017.2 0.0
19/07:30am 16.9 18.4 16.6 98 0.2 SSE 4 7 2 4 1017.0 1017.0 0.0
19/07:00am 16.8 18.6 16.5 98 0.2 SE 2 6 1 3 1016.6 1016.6 0.0
19/06:30am 16.7 18.1 16.4 98 0.2 ESE 4 6 2 3 1016.5 1016.5 0.0
19/06:00am 16.7 18.1 16.4 98 0.2 SE 4 6 2 3 1016.2 1016.2 0.0
19/05:30am 16.3 18.3 16.0 98 0.2 CALM 0 0 0 0 1015.9 1015.9 0.0
19/05:00am 16.4 18.4 16.1 98 0.2 CALM 0 0 0 0 1015.6 1015.6 0.0
19/04:30am 15.6 17.3 15.3 98 0.2 CALM 0 0 0 0 1015.6 1015.6 0.0
19/04:00am 15.2 16.8 14.9 98 0.2 CALM 0 0 0 0 1015.6 1015.6 0.0
19/03:30am 14.5 15.0 11.5 82 1.6 CALM 0 0 0 0 1015.5 1015.5 0.0
19/03:00am 12.0 11.7 8.5 79 1.7 CALM 0 0 0 0 1015.5 1015.5 0.0
19/02:30am 12.4 11.8 7.5 72 2.4 CALM 0 0 0 0 1015.6 1015.6 0.0
19/02:00am 12.9 12.5 8.2 73 2.3 CALM 0 0 0 0 1015.7 1015.7 0.0
19/01:30am 13.1 13.0 9.4 78 1.9 CALM 0 0 0 0 1015.9 1015.9 0.0
19/01:00am 13.7 13.9 10.5 81 1.7 CALM 0 0 0 0 1016.0 1016.0 0.0
19/12:30am 14.3 13.6 7.1 62 3.5 CALM 0 0 0 0 1016.1 1016.1 0.0
19/12:00am 15.2 15.3 11.4 78 2.0 SSE 2 4 1 2 1016.2 1016.2 0.0
 
Date/Time
CST
Temp
°C
App
Temp
°C
Dew
Point
°C
Rel
Hum
%
Delta-T
°C
Wind Press
QNH
hPa
Press
MSL
hPa
Rain since
9am
mm
Dir  Spd
km/h
Gust
km/h
Spd
kts
Gust
kts
18/11:30pm 15.6 15.0 11.8 78 2.1 SSE 6 6 3 3 1016.3 1016.3 0.0
18/11:00pm 15.7 14.5 9.6 67 3.2 S 6 6 3 3 1016.2 1016.2 0.0

Other formats

Comma delimited format used in spreadsheet applications
http://www.bom.gov.au/fwo/IDD60801/IDD60801.94106.axf

JavaScript Object Notation format (JSON) in row-major order
http://www.bom.gov.au/fwo/IDD60801/IDD60801.94106.json

Data quality

Most of these data are generated automatically and are frequently updated. Quality checks on data are not normally performed. It is possible for incorrect values to appear. Refer to information at About Latest Weather Observations and please check the disclaimer before using these data.